Time,TemperatureF,DewpointF,PressureIn,WindDirection,WindDirectionDegrees,WindSpeedMPH,WindSpeedGustMPH,Humidity,HourlyPrecipIn,Conditions,Clouds,dailyrainin,SoftwareType,DateUTC
2013-05-07 00:22:00,55.0,45.0,30.06,West,275,0.0,0.0,68,0.00,,,0.00,,2013-05-06 23:22:00,
2013-05-07 00:32:00,55.0,45.0,30.06,West,275,0.0,0.0,68,0.00,,,0.00,,2013-05-06 23:32:00,
2013-05-07 00:42:00,55.0,45.0,30.06,West,275,0.0,0.0,68,0.00,,,0.00,,2013-05-06 23:42:00,
2013-05-07 00:52:00,55.0,45.0,30.06,West,275,0.0,0.0,68,0.00,,,0.00,,2013-05-06 23:52:00,
2013-05-07 01:01:00,55.0,45.0,30.06,West,275,0.0,0.0,68,0.00,,,0.00,,2013-05-07 00:01:00,
2013-05-07 01:22:00,53.0,45.0,30.05,West,275,0.0,0.0,74,0.00,,,0.00,,2013-05-07 00:22:00,
2013-05-07 01:32:00,53.0,45.0,30.05,West,275,0.0,0.0,74,0.00,,,0.00,,2013-05-07 00:32:00,
2013-05-07 01:42:00,53.0,45.0,30.05,West,275,0.0,0.0,74,0.00,,,0.00,,2013-05-07 00:42:00,
2013-05-07 01:52:00,53.0,45.0,30.05,West,275,0.0,0.0,74,0.00,,,0.00,,2013-05-07 00:52:00,
2013-05-07 02:21:00,51.0,44.0,30.03,West,275,0.0,0.0,78,0.00,,,0.00,,2013-05-07 01:21:00,
2013-05-07 02:32:00,51.0,44.0,30.03,West,275,0.0,0.0,78,0.00,,,0.00,,2013-05-07 01:32:00,
2013-05-07 02:42:00,51.0,44.0,30.03,West,275,0.0,0.0,78,0.00,,,0.00,,2013-05-07 01:42:00,
2013-05-07 02:52:00,51.0,45.0,30.03,West,275,0.0,0.0,79,0.00,,,0.00,,2013-05-07 01:52:00,
2013-05-07 03:01:00,51.0,45.0,30.03,West,275,0.0,0.0,79,0.00,,,0.00,,2013-05-07 02:01:00,
2013-05-07 03:11:00,51.0,45.0,30.03,West,275,0.0,0.0,79,0.00,,,0.00,,2013-05-07 02:11:00,
2013-05-07 03:21:00,50.0,44.0,30.03,West,275,0.0,0.0,81,0.00,,,0.00,,2013-05-07 02:21:00,
2013-05-07 03:32:00,50.0,44.0,30.03,West,275,0.0,0.0,81,0.00,,,0.00,,2013-05-07 02:32:00,
2013-05-07 03:42:00,50.0,44.0,30.03,West,275,0.0,0.0,81,0.00,,,0.00,,2013-05-07 02:42:00,
2013-05-07 03:52:00,50.0,44.0,30.03,West,275,0.0,0.0,81,0.00,,,0.00,,2013-05-07 02:52:00,
2013-05-07 04:01:00,50.0,44.0,30.03,West,275,0.0,0.0,81,0.00,,,0.00,,2013-05-07 03:01:00,
2013-05-07 04:22:00,49.0,44.0,30.02,West,275,0.0,1.0,83,0.00,,,0.00,,2013-05-07 03:22:00,
2013-05-07 04:32:00,49.0,44.0,30.02,West,275,0.0,1.0,83,0.00,,,0.00,,2013-05-07 03:32:00,
2013-05-07 04:43:00,49.0,44.0,30.02,West,275,0.0,1.0,83,0.00,,,0.00,,2013-05-07 03:43:00,
2013-05-07 04:53:00,49.0,44.0,30.02,West,275,0.0,1.0,83,0.00,,,0.00,,2013-05-07 03:53:00,
2013-05-07 05:23:00,47.0,43.0,30.02,West,275,0.0,0.0,85,0.00,,,0.00,,2013-05-07 04:23:00,
2013-05-07 05:33:00,47.0,43.0,30.02,West,275,0.0,0.0,85,0.00,,,0.00,,2013-05-07 04:33:00,
2013-05-07 05:42:00,47.0,43.0,30.02,West,275,0.0,0.0,85,0.00,,,0.00,,2013-05-07 04:42:00,
2013-05-07 05:53:00,47.0,43.0,30.02,West,275,0.0,0.0,86,0.00,,,0.00,,2013-05-07 04:53:00,
2013-05-07 06:02:00,47.0,43.0,30.02,West,275,0.0,0.0,86,0.00,,,0.00,,2013-05-07 05:02:00,
2013-05-07 06:12:00,47.0,43.0,30.02,West,275,0.0,0.0,86,0.00,,,0.00,,2013-05-07 05:12:00,
2013-05-07 06:22:00,46.0,42.0,30.03,West,275,0.0,1.0,87,0.00,,,0.00,,2013-05-07 05:22:00,
2013-05-07 06:32:00,46.0,42.0,30.03,West,275,0.0,1.0,87,0.00,,,0.00,,2013-05-07 05:32:00,
2013-05-07 06:42:00,46.0,42.0,30.03,West,275,0.0,1.0,87,0.00,,,0.00,,2013-05-07 05:42:00,
2013-05-07 06:52:00,48.0,45.0,30.03,West,275,0.0,0.0,90,0.00,,,0.00,,2013-05-07 05:52:00,
2013-05-07 07:01:00,53.0,47.0,30.03,West,275,0.0,0.0,81,0.00,,,0.00,,2013-05-07 06:01:00,
2013-05-07 07:02:00,49.0,45.0,30.03,West,275,0.0,0.0,87,0.00,,,0.00,,2013-05-07 06:02:00,
2013-05-07 07:12:00,49.0,45.0,30.03,West,275,0.0,0.0,87,0.00,,,0.00,,2013-05-07 06:12:00,
2013-05-07 07:21:00,53.0,47.0,30.03,West,275,0.0,0.0,81,0.00,,,0.00,,2013-05-07 06:21:00,
2013-05-07 07:32:00,53.0,47.0,30.03,West,275,0.0,0.0,81,0.00,,,0.00,,2013-05-07 06:32:00,
2013-05-07 07:41:00,53.0,47.0,30.03,West,275,0.0,0.0,81,0.00,,,0.00,,2013-05-07 06:41:00,
2013-05-07 07:52:00,53.0,47.0,30.03,West,275,0.0,0.0,81,0.00,,,0.00,,2013-05-07 06:52:00,
2013-05-07 10:23:00,66.0,47.0,30.02,SE,141,7.0,12.0,50,0.00,,,0.00,,2013-05-07 09:23:00,
2013-05-07 10:33:00,66.0,47.0,30.02,SE,141,7.0,12.0,50,0.00,,,0.00,,2013-05-07 09:33:00,
2013-05-07 10:43:00,66.0,47.0,30.02,SE,141,7.0,12.0,50,0.00,,,0.00,,2013-05-07 09:43:00,
2013-05-07 10:51:00,68.0,45.0,30.01,SW,222,5.0,10.0,44,0.00,,,0.00,,2013-05-07 09:51:00,
2013-05-07 10:52:00,67.0,46.0,30.01,SSE,163,6.0,12.0,46,0.00,,,0.00,,2013-05-07 09:52:00,
2013-05-07 11:02:00,67.0,46.0,30.01,SSE,163,6.0,12.0,46,0.00,,,0.00,,2013-05-07 10:02:00,
2013-05-07 11:12:00,67.0,46.0,30.01,SSE,163,6.0,12.0,46,0.00,,,0.00,,2013-05-07 10:12:00,
2013-05-07 11:22:00,68.0,45.0,30.01,SW,222,5.0,10.0,44,0.00,,,0.00,,2013-05-07 10:22:00,
2013-05-07 11:32:00,68.0,45.0,30.01,SW,222,5.0,10.0,44,0.00,,,0.00,,2013-05-07 10:32:00,
2013-05-07 11:42:00,68.0,45.0,30.01,SW,222,5.0,10.0,44,0.00,,,0.00,,2013-05-07 10:42:00,
2013-05-07 12:01:00,71.0,47.0,30.00,West,260,1.0,9.0,42,0.00,,,0.00,,2013-05-07 11:01:00,
2013-05-07 12:02:00,70.0,45.0,30.00,SSE,155,7.0,13.0,41,0.00,,,0.00,,2013-05-07 11:02:00,
2013-05-07 12:12:00,70.0,45.0,30.00,SSE,155,7.0,13.0,41,0.00,,,0.00,,2013-05-07 11:12:00,
2013-05-07 12:22:00,71.0,47.0,30.00,West,260,1.0,9.0,42,0.00,,,0.00,,2013-05-07 11:22:00,
2013-05-07 12:32:00,71.0,47.0,30.00,West,260,1.0,9.0,42,0.00,,,0.00,,2013-05-07 11:32:00,
2013-05-07 12:42:00,71.0,47.0,30.00,West,260,1.0,9.0,42,0.00,,,0.00,,2013-05-07 11:42:00,
2013-05-07 12:52:00,71.0,47.0,30.00,West,260,1.0,9.0,42,0.00,,,0.00,,2013-05-07 11:52:00,
2013-05-07 14:22:00,74.0,46.0,29.97,SW,215,3.0,8.0,37,0.00,,,0.00,,2013-05-07 13:22:00,
2013-05-07 14:32:00,74.0,46.0,29.97,SW,215,3.0,8.0,37,0.00,,,0.00,,2013-05-07 13:32:00,
2013-05-07 14:42:00,74.0,46.0,29.97,SW,215,3.0,8.0,37,0.00,,,0.00,,2013-05-07 13:42:00,
2013-05-07 14:52:00,74.0,46.0,29.97,SW,215,3.0,8.0,37,0.00,,,0.00,,2013-05-07 13:52:00,
2013-05-07 15:01:00,74.0,46.0,29.97,SW,215,3.0,8.0,37,0.00,,,0.00,,2013-05-07 14:01:00,
2013-05-07 16:11:00,72.0,51.0,29.94,SE,141,13.0,18.0,47,0.00,,,0.00,,2013-05-07 15:11:00,
2013-05-07 16:33:00,72.0,51.0,29.94,SE,141,13.0,18.0,47,0.00,,,0.00,,2013-05-07 15:33:00,
2013-05-07 16:42:00,72.0,51.0,29.94,SE,141,13.0,18.0,47,0.00,,,0.00,,2013-05-07 15:42:00,
2013-05-07 16:53:00,72.0,51.0,29.94,SE,141,13.0,18.0,47,0.00,,,0.00,,2013-05-07 15:53:00,
2013-05-07 17:01:00,69.0,48.0,29.93,South,175,10.0,14.0,47,0.00,,,0.00,,2013-05-07 16:01:00,
2013-05-07 17:03:00,72.0,51.0,29.94,SE,141,13.0,18.0,47,0.00,,,0.00,,2013-05-07 16:03:00,
2013-05-07 17:22:00,69.0,48.0,29.93,South,175,10.0,14.0,47,0.00,,,0.00,,2013-05-07 16:22:00,
2013-05-07 17:32:00,69.0,48.0,29.93,South,175,10.0,14.0,47,0.00,,,0.00,,2013-05-07 16:32:00,
2013-05-07 17:42:00,69.0,48.0,29.93,South,175,10.0,14.0,47,0.00,,,0.00,,2013-05-07 16:42:00,
2013-05-07 17:52:00,69.0,48.0,29.93,South,175,10.0,14.0,47,0.00,,,0.00,,2013-05-07 16:52:00,
2013-05-07 18:01:00,70.0,48.0,29.91,South,177,10.0,17.0,45,0.00,,,0.00,,2013-05-07 17:01:00,
2013-05-07 18:21:00,70.0,48.0,29.91,South,177,10.0,17.0,45,0.00,,,0.00,,2013-05-07 17:21:00,
2013-05-07 18:32:00,70.0,48.0,29.91,South,177,10.0,17.0,45,0.00,,,0.00,,2013-05-07 17:32:00,
2013-05-07 18:41:00,70.0,48.0,29.91,South,177,10.0,17.0,45,0.00,,,0.00,,2013-05-07 17:41:00,
2013-05-07 18:52:00,70.0,48.0,29.91,South,177,10.0,17.0,45,0.00,,,0.00,,2013-05-07 17:52:00,
2013-05-07 20:22:00,66.0,45.0,29.90,South,170,3.0,14.0,47,0.00,,,0.00,,2013-05-07 19:22:00,
2013-05-07 20:32:00,66.0,45.0,29.90,South,170,3.0,14.0,47,0.00,,,0.00,,2013-05-07 19:32:00,
2013-05-07 20:41:00,64.0,44.0,29.89,SSW,194,2.0,9.0,49,0.00,,,0.00,,2013-05-07 19:41:00,
2013-05-07 20:42:00,66.0,45.0,29.90,South,170,3.0,14.0,47,0.00,,,0.00,,2013-05-07 19:42:00,
2013-05-07 20:52:00,66.0,45.0,29.90,South,170,3.0,14.0,47,0.00,,,0.00,,2013-05-07 19:52:00,
2013-05-07 21:01:00,64.0,44.0,29.89,SSW,194,2.0,9.0,49,0.00,,,0.00,,2013-05-07 20:01:00,
2013-05-07 21:11:00,64.0,44.0,29.89,SSW,194,2.0,9.0,49,0.00,,,0.00,,2013-05-07 20:11:00,
2013-05-07 21:21:00,64.0,44.0,29.89,SSW,194,2.0,9.0,49,0.00,,,0.00,,2013-05-07 20:21:00,
2013-05-07 21:32:00,64.0,44.0,29.89,SSW,194,2.0,9.0,49,0.00,,,0.00,,2013-05-07 20:32:00,
2013-05-07 22:01:00,61.0,45.0,29.88,South,183,3.0,12.0,55,0.00,,,0.00,,2013-05-07 21:01:00,
2013-05-07 22:11:00,61.0,45.0,29.88,South,183,3.0,12.0,55,0.00,,,0.00,,2013-05-07 21:11:00,
2013-05-07 22:21:00,61.0,45.0,29.88,SSE,160,3.0,7.0,56,0.00,,,0.00,,2013-05-07 21:21:00,
2013-05-07 22:32:00,61.0,45.0,29.88,SSE,160,3.0,7.0,56,0.00,,,0.00,,2013-05-07 21:32:00,
2013-05-07 22:42:00,61.0,45.0,29.88,SSE,160,3.0,7.0,56,0.00,,,0.00,,2013-05-07 21:42:00,
2013-05-07 22:53:00,61.0,45.0,29.88,SSE,160,3.0,7.0,56,0.00,,,0.00,,2013-05-07 21:53:00,